sensor_id;sensor_type;location;lat;lon;timestamp;pressure;altitude;pressure_sealevel;temperature;humidity
68616;BME280;57261;47.504;19.084;2022-07-11T00:02:38;100548.25;;;23.97;37.82
68616;BME280;57261;47.504;19.084;2022-07-11T00:05:39;100563.94;;;23.99;37.86
68616;BME280;57261;47.504;19.084;2022-07-11T00:08:39;100567.03;;;23.93;38.44
68616;BME280;57261;47.504;19.084;2022-07-11T00:11:40;100564.53;;;23.91;37.93
68616;BME280;57261;47.504;19.084;2022-07-11T00:14:40;100561.59;;;23.83;37.83
68616;BME280;57261;47.504;19.084;2022-07-11T00:17:41;100566.88;;;23.83;38.27
68616;BME280;57261;47.504;19.084;2022-07-11T00:20:42;100558.38;;;23.80;38.10
68616;BME280;57261;47.504;19.084;2022-07-11T00:23:45;100565.66;;;23.77;37.96
68616;BME280;57261;47.504;19.084;2022-07-11T00:26:47;100552.16;;;23.69;38.64
68616;BME280;57261;47.504;19.084;2022-07-11T00:29:50;100559.53;;;23.76;38.45
68616;BME280;57261;47.504;19.084;2022-07-11T00:32:54;100564.69;;;23.78;38.22
68616;BME280;57261;47.504;19.084;2022-07-11T00:35:54;100549.25;;;23.61;38.72
68616;BME280;57261;47.504;19.084;2022-07-11T00:38:58;100545.53;;;23.63;38.79
68616;BME280;57261;47.504;19.084;2022-07-11T00:41:59;100552.13;;;23.58;38.88
68616;BME280;57261;47.504;19.084;2022-07-11T00:45:02;100542.66;;;23.55;38.96
68616;BME280;57261;47.504;19.084;2022-07-11T00:48:03;100552.19;;;23.56;38.70
68616;BME280;57261;47.504;19.084;2022-07-11T00:51:04;100553.88;;;23.57;38.86
68616;BME280;57261;47.504;19.084;2022-07-11T00:54:09;100552.00;;;23.59;38.91
68616;BME280;57261;47.504;19.084;2022-07-11T00:57:12;100557.06;;;23.62;38.43
68616;BME280;57261;47.504;19.084;2022-07-11T01:00:13;100557.91;;;23.50;38.91
68616;BME280;57261;47.504;19.084;2022-07-11T01:03:13;100551.34;;;23.32;39.15
68616;BME280;57261;47.504;19.084;2022-07-11T01:06:14;100558.44;;;23.32;39.47
68616;BME280;57261;47.504;19.084;2022-07-11T01:09:16;100554.72;;;23.34;39.44
68616;BME280;57261;47.504;19.084;2022-07-11T01:12:16;100555.88;;;23.30;39.49
68616;BME280;57261;47.504;19.084;2022-07-11T01:15:17;100554.19;;;23.29;39.89
68616;BME280;57261;47.504;19.084;2022-07-11T01:18:18;100549.56;;;23.33;39.77
68616;BME280;57261;47.504;19.084;2022-07-11T01:21:43;100552.94;;;23.22;39.94
68616;BME280;57261;47.504;19.084;2022-07-11T01:24:44;100549.28;;;23.25;39.93
68616;BME280;57261;47.504;19.084;2022-07-11T01:27:47;100542.44;;;23.22;39.85
68616;BME280;57261;47.504;19.084;2022-07-11T01:30:48;100549.16;;;23.26;40.00
68616;BME280;57261;47.504;19.084;2022-07-11T01:33:48;100504.19;;;22.94;40.22
68616;BME280;57261;47.504;19.084;2022-07-11T01:36:50;100547.03;;;23.31;40.01
68616;BME280;57261;47.504;19.084;2022-07-11T01:39:50;100547.16;;;23.30;40.08
68616;BME280;57261;47.504;19.084;2022-07-11T01:42:51;100548.94;;;23.29;40.17
68616;BME280;57261;47.504;19.084;2022-07-11T01:46:01;100532.66;;;23.24;40.04
68616;BME280;57261;47.504;19.084;2022-07-11T01:49:02;100544.03;;;23.25;40.34
68616;BME280;57261;47.504;19.084;2022-07-11T01:52:06;100543.94;;;23.14;40.45
68616;BME280;57261;47.504;19.084;2022-07-11T01:55:07;100526.47;;;23.01;40.66
68616;BME280;57261;47.504;19.084;2022-07-11T01:58:10;100540.97;;;23.18;40.37
68616;BME280;57261;47.504;19.084;2022-07-11T02:01:15;100544.16;;;23.11;40.45
68616;BME280;57261;47.504;19.084;2022-07-11T02:04:16;100541.84;;;23.07;40.66
68616;BME280;57261;47.504;19.084;2022-07-11T02:07:16;100536.78;;;23.04;40.85
68616;BME280;57261;47.504;19.084;2022-07-11T02:10:38;100546.88;;;22.97;40.61
68616;BME280;57261;47.504;19.084;2022-07-11T02:13:38;100547.94;;;22.95;41.18
68616;BME280;57261;47.504;19.084;2022-07-11T02:16:39;100540.06;;;22.95;40.78
68616;BME280;57261;47.504;19.084;2022-07-11T02:19:40;100548.38;;;22.89;41.25
68616;BME280;57261;47.504;19.084;2022-07-11T02:22:40;100544.78;;;22.90;41.20
68616;BME280;57261;47.504;19.084;2022-07-11T02:25:40;100550.47;;;22.84;41.10
68616;BME280;57261;47.504;19.084;2022-07-11T02:28:44;100553.09;;;22.84;41.31
68616;BME280;57261;47.504;19.084;2022-07-11T02:31:45;100560.16;;;22.83;41.49
68616;BME280;57261;47.504;19.084;2022-07-11T02:34:45;100567.81;;;22.86;41.57
68616;BME280;57261;47.504;19.084;2022-07-11T02:37:46;100565.19;;;22.86;41.42
68616;BME280;57261;47.504;19.084;2022-07-11T02:40:46;100571.09;;;22.77;41.62
68616;BME280;57261;47.504;19.084;2022-07-11T02:43:47;100568.47;;;22.77;41.71
68616;BME280;57261;47.504;19.084;2022-07-11T02:46:47;100571.50;;;22.84;41.56
68616;BME280;57261;47.504;19.084;2022-07-11T02:49:48;100582.97;;;22.83;41.67
68616;BME280;57261;47.504;19.084;2022-07-11T02:52:52;100580.25;;;22.72;41.79
68616;BME280;57261;47.504;19.084;2022-07-11T02:55:52;100570.78;;;22.69;41.96
68616;BME280;57261;47.504;19.084;2022-07-11T02:58:56;100575.53;;;22.64;42.01
68616;BME280;57261;47.504;19.084;2022-07-11T03:01:56;100571.00;;;22.54;42.34
68616;BME280;57261;47.504;19.084;2022-07-11T03:04:57;100563.28;;;22.38;42.68
68616;BME280;57261;47.504;19.084;2022-07-11T03:07:58;100581.44;;;22.29;42.82
68616;BME280;57261;47.504;19.084;2022-07-11T03:10:58;100577.28;;;22.13;43.12
68616;BME280;57261;47.504;19.084;2022-07-11T03:14:02;100575.94;;;22.07;43.16
68616;BME280;57261;47.504;19.084;2022-07-11T03:17:03;100578.88;;;22.15;43.25
68616;BME280;57261;47.504;19.084;2022-07-11T03:20:08;100577.94;;;22.16;43.19
68616;BME280;57261;47.504;19.084;2022-07-11T03:23:08;100579.50;;;22.19;43.35
68616;BME280;57261;47.504;19.084;2022-07-11T03:26:12;100582.22;;;22.05;43.56
68616;BME280;57261;47.504;19.084;2022-07-11T03:29:15;100576.47;;;21.73;44.14
68616;BME280;57261;47.504;19.084;2022-07-11T03:32:17;100574.31;;;21.92;43.88
68616;BME280;57261;47.504;19.084;2022-07-11T03:35:20;100577.28;;;22.00;43.41
68616;BME280;57261;47.504;19.084;2022-07-11T03:38:39;100571.75;;;22.17;43.32
68616;BME280;57261;47.504;19.084;2022-07-11T03:41:40;100571.75;;;22.17;43.51
68616;BME280;57261;47.504;19.084;2022-07-11T03:44:41;100579.84;;;22.14;43.90
68616;BME280;57261;47.504;19.084;2022-07-11T03:47:42;100588.53;;;22.15;43.55
68616;BME280;57261;47.504;19.084;2022-07-11T03:50:42;100589.16;;;22.32;43.19
68616;BME280;57261;47.504;19.084;2022-07-11T03:53:46;100585.97;;;22.27;43.11
68616;BME280;57261;47.504;19.084;2022-07-11T03:56:46;100587.00;;;22.25;43.32
68616;BME280;57261;47.504;19.084;2022-07-11T03:59:47;100596.88;;;22.21;43.54
68616;BME280;57261;47.504;19.084;2022-07-11T04:02:51;100591.28;;;22.26;43.20
68616;BME280;57261;47.504;19.084;2022-07-11T04:05:55;100594.22;;;22.35;43.27
68616;BME280;57261;47.504;19.084;2022-07-11T04:08:55;100593.19;;;22.24;43.23
68616;BME280;57261;47.504;19.084;2022-07-11T04:11:56;100591.88;;;22.43;42.99
68616;BME280;57261;47.504;19.084;2022-07-11T04:14:57;100594.72;;;22.52;42.88
68616;BME280;57261;47.504;19.084;2022-07-11T04:17:58;100594.41;;;22.57;42.30
68616;BME280;57261;47.504;19.084;2022-07-11T04:20:58;100600.72;;;22.54;43.13
68616;BME280;57261;47.504;19.084;2022-07-11T04:23:59;100600.63;;;22.56;42.86
68616;BME280;57261;47.504;19.084;2022-07-11T04:26:59;100605.56;;;22.48;42.94
68616;BME280;57261;47.504;19.084;2022-07-11T04:30:00;100605.16;;;22.54;42.70
68616;BME280;57261;47.504;19.084;2022-07-11T04:33:00;100597.59;;;22.62;42.50
68616;BME280;57261;47.504;19.084;2022-07-11T04:36:01;100605.56;;;22.60;42.80
68616;BME280;57261;47.504;19.084;2022-07-11T04:39:01;100614.50;;;22.58;42.75
68616;BME280;57261;47.504;19.084;2022-07-11T04:42:02;100607.69;;;22.68;42.46
68616;BME280;57261;47.504;19.084;2022-07-11T04:45:06;100615.88;;;22.63;43.00
68616;BME280;57261;47.504;19.084;2022-07-11T04:48:07;100610.84;;;22.73;42.17
68616;BME280;57261;47.504;19.084;2022-07-11T04:51:07;100599.69;;;22.57;42.55
68616;BME280;57261;47.504;19.084;2022-07-11T04:54:08;100612.94;;;22.68;42.43
68616;BME280;57261;47.504;19.084;2022-07-11T04:57:09;100616.72;;;22.76;42.15
68616;BME280;57261;47.504;19.084;2022-07-11T05:00:09;100612.53;;;22.74;42.09
68616;BME280;57261;47.504;19.084;2022-07-11T05:03:10;100622.38;;;22.58;42.75
68616;BME280;57261;47.504;19.084;2022-07-11T05:06:11;100603.91;;;22.72;42.74
68616;BME280;57261;47.504;19.084;2022-07-11T05:09:11;100625.25;;;22.80;42.24
68616;BME280;57261;47.504;19.084;2022-07-11T05:12:12;100620.50;;;22.85;42.22
68616;BME280;57261;47.504;19.084;2022-07-11T05:15:13;100627.75;;;22.81;42.23
68616;BME280;57261;47.504;19.084;2022-07-11T05:18:14;100624.72;;;22.75;42.51
68616;BME280;57261;47.504;19.084;2022-07-11T05:21:14;100625.56;;;22.75;42.39
68616;BME280;57261;47.504;19.084;2022-07-11T05:24:15;100619.06;;;22.81;42.56
68616;BME280;57261;47.504;19.084;2022-07-11T05:27:15;100627.03;;;22.92;42.10
68616;BME280;57261;47.504;19.084;2022-07-11T05:30:18;100631.88;;;22.98;41.88
68616;BME280;57261;47.504;19.084;2022-07-11T05:33:19;100636.00;;;23.02;42.07
68616;BME280;57261;47.504;19.084;2022-07-11T05:36:19;100631.91;;;23.10;42.04
68616;BME280;57261;47.504;19.084;2022-07-11T05:39:20;100635.34;;;23.10;42.03
68616;BME280;57261;47.504;19.084;2022-07-11T05:42:20;100636.09;;;23.12;42.32
68616;BME280;57261;47.504;19.084;2022-07-11T05:45:22;100631.59;;;23.14;42.42
68616;BME280;57261;47.504;19.084;2022-07-11T05:48:23;100640.31;;;23.27;41.90
68616;BME280;57261;47.504;19.084;2022-07-11T05:51:23;100632.41;;;23.27;41.78
68616;BME280;57261;47.504;19.084;2022-07-11T05:54:23;100646.81;;;23.34;41.83
68616;BME280;57261;47.504;19.084;2022-07-11T05:57:24;100638.38;;;23.42;41.43
68616;BME280;57261;47.504;19.084;2022-07-11T06:00:25;100644.06;;;23.48;41.42
68616;BME280;57261;47.504;19.084;2022-07-11T06:03:29;100643.00;;;23.51;41.48
68616;BME280;57261;47.504;19.084;2022-07-11T06:06:31;100638.34;;;23.54;41.23
68616;BME280;57261;47.504;19.084;2022-07-11T06:09:31;100640.53;;;23.60;41.47
68616;BME280;57261;47.504;19.084;2022-07-11T06:12:32;100631.59;;;23.63;41.10
68616;BME280;57261;47.504;19.084;2022-07-11T06:15:32;100641.56;;;23.70;41.43
68616;BME280;57261;47.504;19.084;2022-07-11T06:18:36;100641.25;;;23.75;41.21
68616;BME280;57261;47.504;19.084;2022-07-11T06:21:37;100643.78;;;23.76;41.14
68616;BME280;57261;47.504;19.084;2022-07-11T06:24:38;100646.69;;;23.84;40.63
68616;BME280;57261;47.504;19.084;2022-07-11T06:27:38;100649.25;;;23.85;41.11
68616;BME280;57261;47.504;19.084;2022-07-11T06:30:38;100648.06;;;23.89;41.08
68616;BME280;57261;47.504;19.084;2022-07-11T06:33:39;100639.84;;;23.94;40.57
68616;BME280;57261;47.504;19.084;2022-07-11T06:36:40;100649.31;;;23.96;40.46
68616;BME280;57261;47.504;19.084;2022-07-11T06:39:40;100641.53;;;23.95;40.42
68616;BME280;57261;47.504;19.084;2022-07-11T06:42:40;100636.28;;;24.06;40.46
68616;BME280;57261;47.504;19.084;2022-07-11T06:45:41;100637.97;;;24.07;41.10
68616;BME280;57261;47.504;19.084;2022-07-11T06:48:42;100642.06;;;24.11;42.08
68616;BME280;57261;47.504;19.084;2022-07-11T06:51:42;100643.28;;;24.18;41.03
68616;BME280;57261;47.504;19.084;2022-07-11T06:54:45;100650.25;;;24.19;41.15
68616;BME280;57261;47.504;19.084;2022-07-11T06:57:46;100649.66;;;24.26;40.74
68616;BME280;57261;47.504;19.084;2022-07-11T07:00:46;100652.25;;;24.39;41.59
68616;BME280;57261;47.504;19.084;2022-07-11T07:03:47;100654.25;;;24.48;40.55
68616;BME280;57261;47.504;19.084;2022-07-11T07:06:47;100658.09;;;24.55;41.23
68616;BME280;57261;47.504;19.084;2022-07-11T07:09:51;100630.97;;;24.42;40.83
68616;BME280;57261;47.504;19.084;2022-07-11T07:12:52;100656.22;;;24.67;40.71
68616;BME280;57261;47.504;19.084;2022-07-11T07:15:53;100654.66;;;24.76;40.19
68616;BME280;57261;47.504;19.084;2022-07-11T07:18:53;100658.16;;;24.87;39.82
68616;BME280;57261;47.504;19.084;2022-07-11T07:21:54;100665.75;;;24.92;40.44
68616;BME280;57261;47.504;19.084;2022-07-11T07:24:54;100659.88;;;24.99;41.31
68616;BME280;57261;47.504;19.084;2022-07-11T07:27:54;100656.31;;;25.11;38.65
68616;BME280;57261;47.504;19.084;2022-07-11T07:30:57;100656.81;;;25.16;39.92
68616;BME280;57261;47.504;19.084;2022-07-11T07:33:57;100658.50;;;25.28;40.71
68616;BME280;57261;47.504;19.084;2022-07-11T07:36:58;100658.59;;;25.37;39.62
68616;BME280;57261;47.504;19.084;2022-07-11T07:39:59;100655.94;;;25.48;39.18
68616;BME280;57261;47.504;19.084;2022-07-11T07:42:59;100660.50;;;25.57;38.25
68616;BME280;57261;47.504;19.084;2022-07-11T07:46:01;100657.63;;;25.60;37.27
68616;BME280;57261;47.504;19.084;2022-07-11T07:49:02;100654.75;;;25.52;39.87
68616;BME280;57261;47.504;19.084;2022-07-11T07:52:03;100666.41;;;25.61;39.14
68616;BME280;57261;47.504;19.084;2022-07-11T07:55:05;100655.56;;;25.64;38.77
68616;BME280;57261;47.504;19.084;2022-07-11T07:58:05;100661.56;;;25.66;37.69
68616;BME280;57261;47.504;19.084;2022-07-11T08:01:06;100673.13;;;25.54;37.99
68616;BME280;57261;47.504;19.084;2022-07-11T08:04:25;100664.59;;;25.50;38.40
68616;BME280;57261;47.504;19.084;2022-07-11T08:07:26;100661.84;;;25.41;39.52
68616;BME280;57261;47.504;19.084;2022-07-11T08:10:26;100662.06;;;25.38;38.50
68616;BME280;57261;47.504;19.084;2022-07-11T08:13:26;100657.41;;;25.31;39.77
68616;BME280;57261;47.504;19.084;2022-07-11T08:16:28;100664.38;;;25.32;39.50
68616;BME280;57261;47.504;19.084;2022-07-11T08:19:29;100647.44;;;25.23;40.54
68616;BME280;57261;47.504;19.084;2022-07-11T08:22:31;100661.00;;;25.30;39.89
68616;BME280;57261;47.504;19.084;2022-07-11T08:25:31;100658.00;;;25.34;39.01
68616;BME280;57261;47.504;19.084;2022-07-11T08:28:31;100667.97;;;25.31;37.38
68616;BME280;57261;47.504;19.084;2022-07-11T08:31:35;100655.59;;;25.31;38.07
68616;BME280;57261;47.504;19.084;2022-07-11T08:34:36;100651.88;;;25.33;38.19
68616;BME280;57261;47.504;19.084;2022-07-11T08:37:37;100652.47;;;25.37;37.18
68616;BME280;57261;47.504;19.084;2022-07-11T08:40:40;100652.13;;;25.31;37.21
68616;BME280;57261;47.504;19.084;2022-07-11T08:43:41;100646.59;;;25.33;39.08
68616;BME280;57261;47.504;19.084;2022-07-11T08:46:41;100647.19;;;25.37;37.12
68616;BME280;57261;47.504;19.084;2022-07-11T08:49:44;100625.72;;;25.41;37.07
68616;BME280;57261;47.504;19.084;2022-07-11T08:52:45;100625.72;;;25.52;36.18
68616;BME280;57261;47.504;19.084;2022-07-11T08:55:45;100582.28;;;25.34;37.54
68616;BME280;57261;47.504;19.084;2022-07-11T08:58:47;100632.53;;;25.66;36.76
68616;BME280;57261;47.504;19.084;2022-07-11T09:01:49;100623.78;;;25.76;36.88
68616;BME280;57261;47.504;19.084;2022-07-11T09:04:51;100622.19;;;25.85;37.45
68616;BME280;57261;47.504;19.084;2022-07-11T09:07:51;100615.22;;;25.84;36.12
68616;BME280;57261;47.504;19.084;2022-07-11T09:10:52;100622.78;;;25.88;37.11
68616;BME280;57261;47.504;19.084;2022-07-11T09:13:52;100616.88;;;25.96;35.69
68616;BME280;57261;47.504;19.084;2022-07-11T09:19:53;100600.75;;;25.99;35.58
68616;BME280;57261;47.504;19.084;2022-07-11T09:22:54;100605.44;;;26.06;34.84
68616;BME280;57261;47.504;19.084;2022-07-11T09:26:13;100603.25;;;26.11;37.25
68616;BME280;57261;47.504;19.084;2022-07-11T09:29:18;100598.78;;;26.11;35.93
68616;BME280;57261;47.504;19.084;2022-07-11T09:32:25;100587.19;;;26.23;35.09
68616;BME280;57261;47.504;19.084;2022-07-11T09:38:55;100587.75;;;26.38;35.42
68616;BME280;57261;47.504;19.084;2022-07-11T09:41:56;100585.94;;;26.38;34.18
68616;BME280;57261;47.504;19.084;2022-07-11T09:45:10;100583.50;;;26.46;34.54
68616;BME280;57261;47.504;19.084;2022-07-11T09:48:13;100577.38;;;26.46;32.00
68616;BME280;57261;47.504;19.084;2022-07-11T09:51:19;100592.00;;;26.50;32.81
68616;BME280;57261;47.504;19.084;2022-07-11T09:54:20;100584.41;;;26.56;33.23
68616;BME280;57261;47.504;19.084;2022-07-11T09:57:36;100584.59;;;26.64;33.63
68616;BME280;57261;47.504;19.084;2022-07-11T10:00:39;100576.47;;;26.56;33.40
68616;BME280;57261;47.504;19.084;2022-07-11T10:03:40;100582.72;;;26.55;32.71
68616;BME280;57261;47.504;19.084;2022-07-11T10:06:41;100588.22;;;26.63;33.90
68616;BME280;57261;47.504;19.084;2022-07-11T10:09:41;100585.28;;;26.66;34.52
68616;BME280;57261;47.504;19.084;2022-07-11T10:12:43;100578.06;;;26.68;32.81
68616;BME280;57261;47.504;19.084;2022-07-11T10:15:46;100568.91;;;26.72;31.82
68616;BME280;57261;47.504;19.084;2022-07-11T10:28:48;100569.28;;;26.88;32.62
68616;BME280;57261;47.504;19.084;2022-07-11T10:35:10;100566.00;;;27.05;32.44
68616;BME280;57261;47.504;19.084;2022-07-11T10:38:11;100563.13;;;27.08;31.42
68616;BME280;57261;47.504;19.084;2022-07-11T10:41:21;100573.00;;;27.06;32.17
68616;BME280;57261;47.504;19.084;2022-07-11T10:44:23;100561.63;;;27.15;31.04
68616;BME280;57261;47.504;19.084;2022-07-11T10:47:43;100567.31;;;27.10;30.20
68616;BME280;57261;47.504;19.084;2022-07-11T10:50:43;100562.72;;;27.12;30.25
68616;BME280;57261;47.504;19.084;2022-07-11T10:53:49;100555.19;;;27.08;29.96
68616;BME280;57261;47.504;19.084;2022-07-11T11:00:20;100561.31;;;27.18;30.88
68616;BME280;57261;47.504;19.084;2022-07-11T11:03:20;100552.72;;;27.25;31.02
68616;BME280;57261;47.504;19.084;2022-07-11T11:06:56;100544.81;;;27.44;32.54
68616;BME280;57261;47.504;19.084;2022-07-11T11:09:57;100530.72;;;27.34;31.02
68616;BME280;57261;47.504;19.084;2022-07-11T11:16:21;100540.34;;;27.45;30.35
68616;BME280;57261;47.504;19.084;2022-07-11T11:23:07;100548.81;;;27.68;28.92
68616;BME280;57261;47.504;19.084;2022-07-11T11:29:11;100549.88;;;27.57;30.37
68616;BME280;57261;47.504;19.084;2022-07-11T11:32:11;100544.28;;;27.60;31.75
68616;BME280;57261;47.504;19.084;2022-07-11T11:35:12;100542.19;;;27.54;29.71
68616;BME280;57261;47.504;19.084;2022-07-11T11:38:13;100554.03;;;27.50;30.06
68616;BME280;57261;47.504;19.084;2022-07-11T11:41:14;100558.78;;;27.46;31.17
68616;BME280;57261;47.504;19.084;2022-07-11T11:44:22;100560.03;;;27.52;31.38
68616;BME280;57261;47.504;19.084;2022-07-11T11:47:23;100553.97;;;27.79;32.45
68616;BME280;57261;47.504;19.084;2022-07-11T11:50:24;100557.50;;;30.07;30.62
68616;BME280;57261;47.504;19.084;2022-07-11T11:53:25;100538.69;;;33.18;25.31
68616;BME280;57261;47.504;19.084;2022-07-11T11:56:31;100542.72;;;34.42;23.61
68616;BME280;57261;47.504;19.084;2022-07-11T11:59:34;100537.75;;;33.72;26.37
68616;BME280;57261;47.504;19.084;2022-07-11T12:02:35;100535.09;;;33.33;26.34
68616;BME280;57261;47.504;19.084;2022-07-11T12:05:35;100541.59;;;34.51;26.17
68616;BME280;57261;47.504;19.084;2022-07-11T12:08:36;100541.63;;;36.56;25.54
68616;BME280;57261;47.504;19.084;2022-07-11T12:11:37;100531.78;;;38.42;24.96
68616;BME280;57261;47.504;19.084;2022-07-11T12:14:38;100527.75;;;39.09;21.37
68616;BME280;57261;47.504;19.084;2022-07-11T12:17:46;100523.81;;;40.16;20.67
68616;BME280;57261;47.504;19.084;2022-07-11T12:20:47;100528.44;;;40.83;21.95
68616;BME280;57261;47.504;19.084;2022-07-11T12:23:47;100524.41;;;41.57;22.19
68616;BME280;57261;47.504;19.084;2022-07-11T12:26:48;100519.66;;;40.63;21.93
68616;BME280;57261;47.504;19.084;2022-07-11T12:29:50;100523.63;;;39.87;22.61
68616;BME280;57261;47.504;19.084;2022-07-11T12:33:13;100514.25;;;41.34;19.48
68616;BME280;57261;47.504;19.084;2022-07-11T12:36:13;100523.50;;;41.63;23.04
68616;BME280;57261;47.504;19.084;2022-07-11T12:39:28;100524.56;;;42.02;20.49
68616;BME280;57261;47.504;19.084;2022-07-11T12:42:34;100527.25;;;40.79;21.20
68616;BME280;57261;47.504;19.084;2022-07-11T12:45:36;100528.97;;;39.13;21.16
68616;BME280;57261;47.504;19.084;2022-07-11T12:48:39;100521.31;;;37.61;19.88
68616;BME280;57261;47.504;19.084;2022-07-11T12:51:42;100538.44;;;35.98;21.40
68616;BME280;57261;47.504;19.084;2022-07-11T12:54:44;100535.03;;;37.19;23.75
68616;BME280;57261;47.504;19.084;2022-07-11T12:58:00;100519.47;;;39.91;19.69
68616;BME280;57261;47.504;19.084;2022-07-11T13:01:00;100511.16;;;41.49;18.35
68616;BME280;57261;47.504;19.084;2022-07-11T13:04:01;100509.31;;;40.11;19.47
68616;BME280;57261;47.504;19.084;2022-07-11T13:07:40;100517.69;;;40.94;23.89
68616;BME280;57261;47.504;19.084;2022-07-11T13:11:00;100503.59;;;42.09;21.65
68616;BME280;57261;47.504;19.084;2022-07-11T13:14:03;100504.31;;;42.85;20.04
68616;BME280;57261;47.504;19.084;2022-07-11T13:17:24;100487.44;;;43.33;19.90
68616;BME280;57261;47.504;19.084;2022-07-11T13:20:26;100499.88;;;42.56;19.97
68616;BME280;57261;47.504;19.084;2022-07-11T13:23:27;100503.31;;;40.33;19.16
68616;BME280;57261;47.504;19.084;2022-07-11T13:26:28;100508.97;;;38.63;20.46
68616;BME280;57261;47.504;19.084;2022-07-11T13:29:28;100509.44;;;37.36;22.15
68616;BME280;57261;47.504;19.084;2022-07-11T13:32:29;100512.00;;;36.22;23.85
68616;BME280;57261;47.504;19.084;2022-07-11T13:35:30;100516.16;;;35.27;28.63
68616;BME280;57261;47.504;19.084;2022-07-11T13:38:31;100519.59;;;34.63;27.78
68616;BME280;57261;47.504;19.084;2022-07-11T13:41:31;100516.22;;;34.32;28.75
68616;BME280;57261;47.504;19.084;2022-07-11T13:44:32;100502.69;;;34.11;27.38
68616;BME280;57261;47.504;19.084;2022-07-11T13:47:32;100516.22;;;33.87;26.72
68616;BME280;57261;47.504;19.084;2022-07-11T13:50:33;100497.69;;;33.64;25.49
68616;BME280;57261;47.504;19.084;2022-07-11T13:53:35;100515.19;;;33.36;26.67
68616;BME280;57261;47.504;19.084;2022-07-11T13:56:35;100512.03;;;32.94;27.77
68616;BME280;57261;47.504;19.084;2022-07-11T13:59:36;100518.31;;;32.55;31.34
68616;BME280;57261;47.504;19.084;2022-07-11T14:02:36;100508.47;;;32.55;27.83
68616;BME280;57261;47.504;19.084;2022-07-11T14:05:36;100517.69;;;32.29;28.18
68616;BME280;57261;47.504;19.084;2022-07-11T14:08:37;100526.84;;;32.03;28.92
68616;BME280;57261;47.504;19.084;2022-07-11T14:11:37;100532.19;;;31.79;30.16
68616;BME280;57261;47.504;19.084;2022-07-11T14:14:38;100520.72;;;31.37;32.14
68616;BME280;57261;47.504;19.084;2022-07-11T14:17:38;100522.66;;;31.27;29.71
68616;BME280;57261;47.504;19.084;2022-07-11T14:20:39;100532.09;;;31.06;30.67
68616;BME280;57261;47.504;19.084;2022-07-11T14:23:39;100532.50;;;30.93;30.57
68616;BME280;57261;47.504;19.084;2022-07-11T14:26:40;100527.56;;;30.73;33.89
68616;BME280;57261;47.504;19.084;2022-07-11T14:29:41;100535.72;;;30.72;29.59
68616;BME280;57261;47.504;19.084;2022-07-11T14:32:41;100533.31;;;30.61;30.59
68616;BME280;57261;47.504;19.084;2022-07-11T14:35:42;100520.97;;;30.52;31.89
68616;BME280;57261;47.504;19.084;2022-07-11T14:38:42;100544.84;;;30.44;32.90
68616;BME280;57261;47.504;19.084;2022-07-11T14:41:43;100544.84;;;30.44;32.90
68616;BME280;57261;47.504;19.084;2022-07-11T14:44:46;100521.97;;;30.33;28.89
68616;BME280;57261;47.504;19.084;2022-07-11T14:47:49;100535.06;;;30.27;29.69
68616;BME280;57261;47.504;19.084;2022-07-11T14:50:51;100526.00;;;30.20;30.58
68616;BME280;57261;47.504;19.084;2022-07-11T14:53:51;100522.63;;;30.10;32.11
68616;BME280;57261;47.504;19.084;2022-07-11T14:56:51;100520.09;;;30.08;31.37
68616;BME280;57261;47.504;19.084;2022-07-11T14:59:53;100514.56;;;30.02;29.90
68616;BME280;57261;47.504;19.084;2022-07-11T15:02:54;100525.03;;;29.86;30.36
68616;BME280;57261;47.504;19.084;2022-07-11T15:06:15;100516.06;;;29.70;31.91
68616;BME280;57261;47.504;19.084;2022-07-11T15:09:16;100530.81;;;29.64;30.82
68616;BME280;57261;47.504;19.084;2022-07-11T15:12:34;100536.97;;;29.65;32.60
68616;BME280;57261;47.504;19.084;2022-07-11T15:15:37;100531.53;;;29.39;34.05
68616;BME280;57261;47.504;19.084;2022-07-11T15:18:37;100531.84;;;29.36;35.29
68616;BME280;57261;47.504;19.084;2022-07-11T15:21:37;100534.19;;;29.39;34.02
68616;BME280;57261;47.504;19.084;2022-07-11T15:24:38;100527.00;;;29.49;32.75
68616;BME280;57261;47.504;19.084;2022-07-11T15:27:38;100531.19;;;29.52;31.70
68616;BME280;57261;47.504;19.084;2022-07-11T15:30:40;100528.00;;;29.48;33.07
68616;BME280;57261;47.504;19.084;2022-07-11T15:33:41;100532.84;;;29.35;33.09
68616;BME280;57261;47.504;19.084;2022-07-11T15:36:48;100526.16;;;29.22;33.73
68616;BME280;57261;47.504;19.084;2022-07-11T15:39:49;100525.16;;;29.23;33.96
68616;BME280;57261;47.504;19.084;2022-07-11T15:42:49;100538.13;;;29.09;32.32
68616;BME280;57261;47.504;19.084;2022-07-11T15:45:50;100527.38;;;29.01;33.91
68616;BME280;57261;47.504;19.084;2022-07-11T15:48:50;100534.97;;;28.96;33.00
68616;BME280;57261;47.504;19.084;2022-07-11T15:51:51;100526.16;;;28.95;32.32
68616;BME280;57261;47.504;19.084;2022-07-11T15:54:51;100534.69;;;28.89;31.45
68616;BME280;57261;47.504;19.084;2022-07-11T15:57:53;100530.84;;;28.84;32.65
68616;BME280;57261;47.504;19.084;2022-07-11T16:00:55;100525.81;;;28.81;33.24
68616;BME280;57261;47.504;19.084;2022-07-11T16:03:56;100543.69;;;28.79;32.42
68616;BME280;57261;47.504;19.084;2022-07-11T16:06:57;100536.69;;;28.78;33.54
68616;BME280;57261;47.504;19.084;2022-07-11T16:09:57;100537.56;;;28.69;33.09
68616;BME280;57261;47.504;19.084;2022-07-11T16:13:00;100526.53;;;28.64;31.19
68616;BME280;57261;47.504;19.084;2022-07-11T16:16:01;100540.28;;;28.41;31.58